Time,TemperatureF,DewpointF,PressureIn,WindDirection,WindDirectionDegrees,WindSpeedMPH,WindSpeedGustMPH,Humidity,HourlyPrecipIn,Conditions,Clouds,dailyrainin,SoftwareType,DateUTC
2013-01-31 00:03:00,28.7,21.1,29.88,WNW,286,8.0,12.0,73,0.00,,OVC037,0.00,VWS V14.01,2013-01-31 06:03:00,
2013-01-31 00:08:00,28.7,20.5,29.88,WNW,288,7.0,18.0,71,0.00,,OVC037,0.00,VWS V14.01,2013-01-31 06:08:00,
2013-01-31 00:13:00,28.8,20.3,29.88,West,267,2.0,5.0,70,0.00,,OVC037,0.00,VWS V14.01,2013-01-31 06:13:00,
2013-01-31 00:18:00,28.9,20.4,29.89,NNW,348,7.0,17.0,70,0.00,,OVC037,0.00,VWS V14.01,2013-01-31 06:18:00,
2013-01-31 00:23:00,28.9,19.7,29.89,West,276,3.0,10.0,68,0.00,,OVC037,0.00,VWS V14.01,2013-01-31 06:23:00,
2013-01-31 00:28:00,28.9,19.3,29.90,NW,313,8.0,16.0,67,0.00,,OVC037,0.00,VWS V14.01,2013-01-31 06:28:00,
2013-01-31 00:33:00,28.8,19.2,29.90,WNW,283,10.0,14.0,67,0.00,,OVC039,0.00,VWS V14.01,2013-01-31 06:33:00,
2013-01-31 00:38:00,28.8,19.6,29.90,WNW,295,5.0,14.0,68,0.00,,OVC039,0.00,VWS V14.01,2013-01-31 06:38:00,
2013-01-31 00:43:00,28.7,19.5,29.90,WNW,290,8.0,20.0,68,0.00,,OVC039,0.00,VWS V14.01,2013-01-31 06:43:00,
2013-01-31 00:48:00,28.6,19.7,29.90,WSW,245,6.0,20.0,69,0.00,,OVC039,0.00,VWS V14.01,2013-01-31 06:48:00,
2013-01-31 00:53:00,28.5,19.6,29.90,NW,308,10.0,13.0,69,0.00,,OVC041,0.00,VWS V14.01,2013-01-31 06:53:00,
2013-01-31 00:58:00,28.4,19.9,29.91,NNW,327,5.0,13.0,70,0.00,,OVC041,0.00,VWS V14.01,2013-01-31 06:58:00,
2013-01-31 01:03:00,28.4,19.5,29.91,West,279,19.0,19.0,69,0.00,,OVC041,0.00,VWS V14.01,2013-01-31 07:03:00,
2013-01-31 01:08:00,28.4,18.5,29.91,West,263,7.0,19.0,66,0.00,,OVC041,0.00,VWS V14.01,2013-01-31 07:08:00,
2013-01-31 01:13:00,28.4,18.1,29.91,WNW,296,4.0,9.0,65,0.00,,OVC041,0.00,VWS V14.01,2013-01-31 07:13:00,
2013-01-31 01:18:00,28.4,18.1,29.91,NW,306,6.0,17.0,65,0.00,,OVC041,0.00,VWS V14.01,2013-01-31 07:18:00,
2013-01-31 01:23:00,28.3,18.1,29.92,West,271,13.0,17.0,65,0.00,,OVC041,0.00,VWS V14.01,2013-01-31 07:23:00,
2013-01-31 01:28:00,28.2,18.3,29.92,NW,325,6.0,17.0,66,0.00,,OVC041,0.00,VWS V14.01,2013-01-31 07:28:00,
2013-01-31 01:33:00,28.1,18.6,29.92,NW,319,7.0,9.0,67,0.00,,OVC041,0.00,VWS V14.01,2013-01-31 07:33:00,
2013-01-31 01:38:00,28.0,18.5,29.92,West,272,6.0,12.0,67,0.00,,OVC041,0.00,VWS V14.01,2013-01-31 07:38:00,
2013-01-31 01:43:00,27.9,18.4,29.92,WNW,292,11.0,12.0,67,0.00,,OVC037,0.00,VWS V14.01,2013-01-31 07:43:00,
2013-01-31 01:48:00,27.9,18.7,29.92,WSW,257,9.0,13.0,68,0.00,,OVC037,0.00,VWS V14.01,2013-01-31 07:48:00,
2013-01-31 01:53:00,27.9,19.1,29.93,WNW,296,4.0,8.0,69,0.00,,OVC041,0.00,VWS V14.01,2013-01-31 07:53:00,
2013-01-31 01:58:00,27.9,19.1,29.93,WNW,295,6.0,13.0,69,0.00,,OVC041,0.00,VWS V14.01,2013-01-31 07:58:00,
2013-01-31 02:03:00,27.9,19.4,29.93,NW,306,10.0,15.0,70,0.00,,OVC041,0.00,VWS V14.01,2013-01-31 08:03:00,
2013-01-31 02:08:00,27.9,19.4,29.93,West,275,3.0,15.0,70,0.00,,OVC041,0.00,VWS V14.01,2013-01-31 08:08:00,
2013-01-31 02:13:00,27.8,19.6,29.93,West,277,5.0,14.0,71,0.00,,OVC041,0.00,VWS V14.01,2013-01-31 08:13:00,
2013-01-31 02:18:00,27.8,19.6,29.93,WNW,291,7.0,14.0,71,0.00,,OVC041,0.00,VWS V14.01,2013-01-31 08:18:00,
2013-01-31 02:23:00,27.8,19.6,29.93,NW,304,3.0,13.0,71,0.00,,OVC041,0.00,VWS V14.01,2013-01-31 08:23:00,
2013-01-31 02:28:00,27.8,20.0,29.93,West,281,6.0,13.0,72,0.00,,OVC041,0.00,VWS V14.01,2013-01-31 08:28:00,
2013-01-31 02:33:00,27.8,20.0,29.94,West,279,3.0,6.0,72,0.00,,OVC043,0.00,VWS V14.01,2013-01-31 08:33:00,
2013-01-31 02:38:00,27.8,20.0,29.94,West,281,7.0,10.0,72,0.00,,OVC043,0.00,VWS V14.01,2013-01-31 08:38:00,
2013-01-31 02:43:00,27.7,20.5,29.94,WNW,301,5.0,12.0,74,0.00,,OVC043,0.00,VWS V14.01,2013-01-31 08:43:00,
2013-01-31 02:48:00,27.5,20.9,29.94,WSW,242,11.0,12.0,76,0.00,,OVC043,0.00,VWS V14.01,2013-01-31 08:48:00,
2013-01-31 02:53:00,27.0,21.4,29.94,NW,304,10.0,10.0,79,0.00,,OVC043,0.00,VWS V14.01,2013-01-31 08:53:00,
2013-01-31 02:58:00,26.6,21.0,29.94,WNW,292,6.0,12.0,79,0.00,,OVC043,0.00,VWS V14.01,2013-01-31 08:58:00,
2013-01-31 03:03:00,26.5,20.9,29.93,WSW,242,3.0,9.0,79,0.00,,OVC043,0.00,VWS V14.01,2013-01-31 09:03:00,
2013-01-31 03:08:00,26.5,20.9,29.93,WNW,303,5.0,9.0,79,0.00,,OVC043,0.00,VWS V14.01,2013-01-31 09:08:00,
2013-01-31 03:13:00,26.6,20.7,29.94,WNW,284,5.0,10.0,78,0.00,,OVC043,0.00,VWS V14.01,2013-01-31 09:13:00,
2013-01-31 03:18:00,26.7,20.8,29.93,WNW,289,3.0,10.0,78,0.00,,OVC043,0.00,VWS V14.01,2013-01-31 09:18:00,
2013-01-31 03:23:00,26.8,20.9,29.94,West,267,2.0,6.0,78,0.00,,OVC043,0.00,VWS V14.01,2013-01-31 09:23:00,
2013-01-31 03:28:00,26.8,20.6,29.94,WNW,282,3.0,8.0,77,0.00,,OVC043,0.00,VWS V14.01,2013-01-31 09:28:00,
2013-01-31 03:33:00,26.9,20.4,29.93,West,259,2.0,12.0,76,0.00,,OVC048,0.00,VWS V14.01,2013-01-31 09:33:00,
2013-01-31 03:38:00,26.9,20.4,29.94,WSW,257,2.0,12.0,76,0.00,,OVC048,0.00,VWS V14.01,2013-01-31 09:38:00,
2013-01-31 03:43:00,27.0,19.8,29.94,West,273,10.0,12.0,74,0.00,,OVC048,0.00,VWS V14.01,2013-01-31 09:43:00,
2013-01-31 03:48:00,27.2,19.7,29.94,WNW,292,1.0,12.0,73,0.00,,OVC048,0.00,VWS V14.01,2013-01-31 09:48:00,
2013-01-31 03:53:00,27.2,19.1,29.93,WNW,286,3.0,10.0,71,0.00,,OVC050,0.00,VWS V14.01,2013-01-31 09:53:00,
2013-01-31 03:58:00,27.4,18.9,29.93,WNW,282,3.0,11.0,70,0.00,,OVC050,0.00,VWS V14.01,2013-01-31 09:58:00,
2013-01-31 04:03:00,27.4,18.9,29.93,West,267,9.0,15.0,70,0.00,,OVC050,0.00,VWS V14.01,2013-01-31 10:03:00,
2013-01-31 04:08:00,27.5,19.0,29.94,WNW,299,3.0,15.0,70,0.00,,OVC050,0.00,VWS V14.01,2013-01-31 10:08:00,
2013-01-31 04:13:00,27.5,18.7,29.94,West,279,2.0,10.0,69,0.00,,OVC050,0.00,VWS V14.01,2013-01-31 10:13:00,
2013-01-31 04:18:00,27.6,18.8,29.93,WSW,238,11.0,11.0,69,0.00,,OVC050,0.00,VWS V14.01,2013-01-31 10:18:00,
2013-01-31 04:23:00,27.6,18.8,29.94,West,275,7.0,9.0,69,0.00,,OVC050,0.00,VWS V14.01,2013-01-31 10:23:00,
2013-01-31 04:28:00,27.6,18.8,29.94,WSW,249,7.0,11.0,69,0.00,,OVC050,0.00,VWS V14.01,2013-01-31 10:28:00,
2013-01-31 04:33:00,27.6,19.1,29.94,NW,321,10.0,10.0,70,0.00,,OVC040,0.00,VWS V14.01,2013-01-31 10:33:00,
2013-01-31 04:38:00,27.7,19.2,29.94,WSW,252,5.0,11.0,70,0.00,,OVC040,0.00,VWS V14.01,2013-01-31 10:38:00,
2013-01-31 04:43:00,27.7,19.2,29.94,West,268,6.0,15.0,70,0.00,,OVC038,0.00,VWS V14.01,2013-01-31 10:43:00,
2013-01-31 04:48:00,27.8,19.3,29.94,West,268,6.0,15.0,70,0.00,,OVC038,0.00,VWS V14.01,2013-01-31 10:48:00,
2013-01-31 04:53:00,27.8,19.3,29.94,WNW,300,5.0,8.0,70,0.00,,OVC034,0.00,VWS V14.01,2013-01-31 10:53:00,
2013-01-31 04:58:00,27.8,19.3,29.94,WNW,303,5.0,13.0,70,0.00,,OVC034,0.00,VWS V14.01,2013-01-31 10:58:00,
2013-01-31 05:03:00,27.9,19.4,29.94,West,269,3.0,13.0,70,0.00,,OVC034,0.00,VWS V14.01,2013-01-31 11:03:00,
2013-01-31 05:08:00,27.9,19.7,29.94,WSW,244,9.0,13.0,71,0.00,,OVC034,0.00,VWS V14.01,2013-01-31 11:08:00,
2013-01-31 05:13:00,27.9,19.4,29.93,West,272,5.0,12.0,70,0.00,,OVC034,0.00,VWS V14.01,2013-01-31 11:13:00,
2013-01-31 05:18:00,27.9,19.7,29.94,WNW,287,2.0,12.0,71,0.00,,OVC034,0.00,VWS V14.01,2013-01-31 11:18:00,
2013-01-31 05:23:00,27.9,20.1,29.94,WNW,290,7.0,7.0,72,0.00,,OVC034,0.00,VWS V14.01,2013-01-31 11:23:00,
2013-01-31 05:28:00,27.9,20.1,29.94,West,281,7.0,10.0,72,0.00,,OVC034,0.00,VWS V14.01,2013-01-31 11:28:00,
2013-01-31 05:33:00,28.0,20.2,29.94,West,265,5.0,6.0,72,0.00,,OVC034,0.00,VWS V14.01,2013-01-31 11:33:00,
2013-01-31 05:38:00,28.0,20.2,29.95,WNW,296,11.0,15.0,72,0.00,,OVC034,0.00,VWS V14.01,2013-01-31 11:38:00,
2013-01-31 05:43:00,28.0,20.2,29.94,WSW,253,4.0,9.0,72,0.00,,OVC032,0.00,VWS V14.01,2013-01-31 11:43:00,
2013-01-31 05:48:00,28.0,19.8,29.95,WNW,295,3.0,12.0,71,0.00,,OVC032,0.00,VWS V14.01,2013-01-31 11:48:00,
2013-01-31 05:53:00,28.1,19.6,29.94,WNW,293,4.0,10.0,70,0.00,,OVC030,0.00,VWS V14.01,2013-01-31 11:53:00,
2013-01-31 05:58:00,28.1,19.6,29.95,West,259,6.0,13.0,70,0.00,,OVC030,0.00,VWS V14.01,2013-01-31 11:58:00,
2013-01-31 06:03:00,28.1,19.3,29.95,WSW,246,17.0,17.0,69,0.00,,OVC030,0.00,VWS V14.01,2013-01-31 12:03:00,
2013-01-31 06:08:00,28.0,18.8,29.95,West,265,9.0,17.0,68,0.00,,OVC030,0.00,VWS V14.01,2013-01-31 12:08:00,
2013-01-31 06:13:00,27.9,18.4,29.96,West,265,11.0,13.0,67,0.00,,OVC030,0.00,VWS V14.01,2013-01-31 12:13:00,
2013-01-31 06:18:00,27.9,18.4,29.96,WSW,254,3.0,14.0,67,0.00,,OVC030,0.00,VWS V14.01,2013-01-31 12:18:00,
2013-01-31 06:23:00,27.7,18.2,29.96,West,269,2.0,10.0,67,0.00,,OVC030,0.00,VWS V14.01,2013-01-31 12:23:00,
2013-01-31 06:28:00,27.6,18.1,29.95,NW,309,2.0,12.0,67,0.00,,OVC030,0.00,VWS V14.01,2013-01-31 12:28:00,
2013-01-31 06:33:00,27.6,18.1,29.96,WNW,292,1.0,11.0,67,0.00,,OVC040,0.00,VWS V14.01,2013-01-31 12:33:00,
2013-01-31 06:38:00,27.6,18.1,29.96,West,264,3.0,11.0,67,0.00,,OVC040,0.00,VWS V14.01,2013-01-31 12:38:00,
2013-01-31 06:43:00,27.6,18.4,29.97,WNW,287,3.0,7.0,68,0.00,,OVC040,0.00,VWS V14.01,2013-01-31 12:43:00,
2013-01-31 06:48:00,27.6,18.8,29.97,NW,318,7.0,11.0,69,0.00,,OVC040,0.00,VWS V14.01,2013-01-31 12:48:00,
2013-01-31 06:53:00,27.6,18.8,29.97,West,270,3.0,6.0,69,0.00,,SCT039,0.00,VWS V14.01,2013-01-31 12:53:00,
2013-01-31 06:58:00,27.5,19.0,29.97,WSW,248,0.0,7.0,70,0.00,,SCT039,0.00,VWS V14.01,2013-01-31 12:58:00,
2013-01-31 07:03:00,27.5,19.0,29.97,NNW,328,6.0,6.0,70,0.00,,SCT039,0.00,VWS V14.01,2013-01-31 13:03:00,
2013-01-31 07:08:00,27.5,19.0,29.98,West,273,3.0,10.0,70,0.00,,SCT039,0.00,VWS V14.01,2013-01-31 13:08:00,
2013-01-31 07:13:00,27.5,19.4,29.98,West,281,4.0,8.0,71,0.00,,SCT039,0.00,VWS V14.01,2013-01-31 13:13:00,
2013-01-31 07:18:00,27.6,19.4,29.99,West,265,3.0,8.0,71,0.00,,SCT039,0.00,VWS V14.01,2013-01-31 13:18:00,
2013-01-31 07:23:00,27.6,19.4,29.99,WNW,283,4.0,14.0,71,0.00,,SCT039,0.00,VWS V14.01,2013-01-31 13:23:00,
2013-01-31 07:28:00,27.8,19.6,29.99,West,275,8.0,14.0,71,0.00,,SCT039,0.00,VWS V14.01,2013-01-31 13:28:00,
2013-01-31 07:33:00,27.9,19.7,29.99,WSW,256,5.0,15.0,71,0.00,,BKN090,0.00,VWS V14.01,2013-01-31 13:33:00,
2013-01-31 07:38:00,28.0,19.8,29.99,WSW,246,5.0,15.0,71,0.00,,BKN090,0.00,VWS V14.01,2013-01-31 13:38:00,
2013-01-31 07:43:00,28.0,19.8,29.99,WSW,251,5.0,8.0,71,0.00,,BKN090,0.00,VWS V14.01,2013-01-31 13:43:00,
2013-01-31 07:48:00,28.1,19.9,29.99,WSW,253,3.0,8.0,71,0.00,,BKN090,0.00,VWS V14.01,2013-01-31 13:48:00,
2013-01-31 07:53:00,28.2,20.0,29.99,WSW,254,7.0,7.0,71,0.00,,OVC100,0.00,VWS V14.01,2013-01-31 13:53:00,
2013-01-31 07:58:00,28.2,20.0,30.00,WSW,255,6.0,12.0,71,0.00,,OVC100,0.00,VWS V14.01,2013-01-31 13:58:00,
2013-01-31 08:03:00,28.3,20.1,30.00,West,260,6.0,9.0,71,0.00,,OVC100,0.00,VWS V14.01,2013-01-31 14:03:00,
2013-01-31 08:08:00,28.4,19.9,30.01,West,275,3.0,10.0,70,0.00,,OVC100,0.00,VWS V14.01,2013-01-31 14:08:00,
2013-01-31 08:13:00,28.4,19.9,30.00,WNW,296,5.0,10.0,70,0.00,,OVC100,0.00,VWS V14.01,2013-01-31 14:13:00,
2013-01-31 08:19:00,28.5,20.0,30.00,WNW,282,2.0,10.0,70,0.00,,OVC100,0.00,VWS V14.01,2013-01-31 14:19:00,
2013-01-31 08:24:00,28.6,20.1,30.01,SW,234,6.0,11.0,70,0.00,,OVC100,0.00,VWS V14.01,2013-01-31 14:24:00,
2013-01-31 08:29:00,28.6,19.7,30.01,WNW,286,2.0,11.0,69,0.00,,OVC100,0.00,VWS V14.01,2013-01-31 14:29:00,
2013-01-31 08:34:00,28.8,19.9,30.01,WNW,291,4.0,9.0,69,0.00,,OVC090,0.00,VWS V14.01,2013-01-31 14:34:00,
2013-01-31 08:39:00,28.8,19.9,30.01,WSW,252,7.0,11.0,69,0.00,,OVC090,0.00,VWS V14.01,2013-01-31 14:39:00,
2013-01-31 08:44:00,28.8,19.2,30.01,SW,229,4.0,11.0,67,0.00,,OVC090,0.00,VWS V14.01,2013-01-31 14:44:00,
2013-01-31 08:49:00,28.8,19.6,30.02,WSW,245,8.0,15.0,68,0.00,,OVC090,0.00,VWS V14.01,2013-01-31 14:49:00,
2013-01-31 08:54:00,28.8,19.9,30.02,West,259,3.0,13.0,69,0.00,,OVC042,0.00,VWS V14.01,2013-01-31 14:54:00,
2013-01-31 08:59:00,28.8,19.9,30.02,WSW,257,11.0,15.0,69,0.00,,OVC042,0.00,VWS V14.01,2013-01-31 14:59:00,
2013-01-31 09:04:00,28.9,20.0,30.02,West,271,6.0,13.0,69,0.00,,OVC042,0.00,VWS V14.01,2013-01-31 15:04:00,
2013-01-31 09:09:00,29.0,20.1,30.02,WSW,252,7.0,13.0,69,0.00,,OVC042,0.00,VWS V14.01,2013-01-31 15:09:00,
2013-01-31 09:14:00,29.0,20.1,30.02,SW,225,8.0,19.0,69,0.00,,OVC042,0.00,VWS V14.01,2013-01-31 15:14:00,
2013-01-31 09:19:00,29.1,20.2,30.02,WSW,238,7.0,19.0,69,0.00,,OVC042,0.00,VWS V14.01,2013-01-31 15:19:00,
2013-01-31 09:24:00,29.1,20.2,30.03,West,271,6.0,9.0,69,0.00,,OVC042,0.00,VWS V14.01,2013-01-31 15:24:00,
2013-01-31 09:29:00,29.3,20.4,30.03,WSW,254,10.0,13.0,69,0.00,,OVC042,0.00,VWS V14.01,2013-01-31 15:29:00,
2013-01-31 09:34:00,29.3,19.4,30.03,SW,235,8.0,14.0,66,0.00,,OVC040,0.00,VWS V14.01,2013-01-31 15:34:00,
2013-01-31 09:39:00,29.3,19.0,30.03,SW,226,15.0,15.0,65,0.00,,OVC040,0.00,VWS V14.01,2013-01-31 15:39:00,
2013-01-31 09:44:00,29.4,19.1,30.04,WNW,290,10.0,14.0,65,0.00,,OVC040,0.00,VWS V14.01,2013-01-31 15:44:00,
2013-01-31 09:49:00,29.4,19.1,30.04,West,278,5.0,14.0,65,0.00,,OVC040,0.00,VWS V14.01,2013-01-31 15:49:00,
2013-01-31 09:54:00,29.6,19.3,30.05,SW,220,11.0,16.0,65,0.00,,BKN090,0.00,VWS V14.01,2013-01-31 15:54:00,
2013-01-31 09:59:00,29.6,19.3,30.05,West,275,12.0,16.0,65,0.00,,BKN090,0.00,VWS V14.01,2013-01-31 15:59:00,
2013-01-31 10:04:00,29.6,19.3,30.05,SW,236,8.0,10.0,65,0.00,,BKN090,0.00,VWS V14.01,2013-01-31 16:04:00,
2013-01-31 10:09:00,29.6,19.6,30.05,WSW,250,8.0,12.0,66,0.00,,BKN090,0.00,VWS V14.01,2013-01-31 16:09:00,
2013-01-31 10:14:00,29.6,19.3,30.05,WSW,255,10.0,17.0,65,0.00,,BKN090,0.00,VWS V14.01,2013-01-31 16:14:00,
2013-01-31 10:19:00,29.6,19.6,30.05,West,263,4.0,17.0,66,0.00,,BKN090,0.00,VWS V14.01,2013-01-31 16:19:00,
2013-01-31 10:24:00,29.6,19.6,30.05,WSW,239,5.0,13.0,66,0.00,,BKN090,0.00,VWS V14.01,2013-01-31 16:24:00,
2013-01-31 10:29:00,29.7,20.1,30.05,West,266,9.0,13.0,67,0.00,,BKN090,0.00,VWS V14.01,2013-01-31 16:29:00,
2013-01-31 10:34:00,29.8,20.5,30.06,West,263,11.0,16.0,68,0.00,,OVC085,0.00,VWS V14.01,2013-01-31 16:34:00,
2013-01-31 10:39:00,29.9,20.6,30.06,West,263,9.0,16.0,68,0.00,,OVC085,0.00,VWS V14.01,2013-01-31 16:39:00,
2013-01-31 10:44:00,30.2,20.9,30.06,WNW,285,9.0,14.0,68,0.00,,OVC085,0.00,VWS V14.01,2013-01-31 16:44:00,
2013-01-31 10:49:00,30.3,21.7,30.06,SW,236,5.0,14.0,70,0.00,,OVC085,0.00,VWS V14.01,2013-01-31 16:49:00,
2013-01-31 10:54:00,30.6,22.3,30.06,WSW,248,6.0,10.0,71,0.00,,OVC060,0.00,VWS V14.01,2013-01-31 16:54:00,
2013-01-31 10:59:00,30.5,21.2,30.06,WSW,253,12.0,19.0,68,0.00,,OVC060,0.00,VWS V14.01,2013-01-31 16:59:00,
2013-01-31 11:04:00,30.5,20.9,30.05,WSW,246,10.0,16.0,67,0.00,,OVC060,0.00,VWS V14.01,2013-01-31 17:04:00,
2013-01-31 11:09:00,30.4,20.4,30.05,South,188,6.0,21.0,66,0.00,,OVC060,0.00,VWS V14.01,2013-01-31 17:09:00,
2013-01-31 11:14:00,30.5,20.1,30.05,WNW,288,4.0,15.0,65,0.00,,OVC060,0.00,VWS V14.01,2013-01-31 17:14:00,
2013-01-31 11:19:00,30.8,20.8,30.05,WNW,294,3.0,15.0,66,0.00,,OVC060,0.00,VWS V14.01,2013-01-31 17:19:00,
2013-01-31 11:24:00,31.5,21.1,30.04,WNW,296,11.0,18.0,65,0.00,,OVC060,0.00,VWS V14.01,2013-01-31 17:24:00,
2013-01-31 11:29:00,31.6,21.2,30.04,West,267,12.0,18.0,65,0.00,,OVC060,0.00,VWS V14.01,2013-01-31 17:29:00,
2013-01-31 11:34:00,32.1,21.7,30.04,WSW,241,6.0,15.0,65,0.00,,OVC070,0.00,VWS V14.01,2013-01-31 17:34:00,
2013-01-31 11:39:00,32.5,22.1,30.03,West,280,8.0,15.0,65,0.00,,OVC070,0.00,VWS V14.01,2013-01-31 17:39:00,
2013-01-31 11:44:00,32.5,21.7,30.03,WSW,250,6.0,12.0,64,0.00,,OVC070,0.00,VWS V14.01,2013-01-31 17:44:00,
2013-01-31 11:49:00,32.5,21.3,30.03,SSW,210,3.0,13.0,63,0.00,,OVC070,0.00,VWS V14.01,2013-01-31 17:49:00,
2013-01-31 11:54:00,32.9,22.4,30.02,WSW,245,7.0,13.0,65,0.00,,OVC070,0.00,VWS V14.01,2013-01-31 17:54:00,
2013-01-31 11:59:00,33.2,22.7,30.03,WSW,255,9.0,14.0,65,0.00,,OVC070,0.00,VWS V14.01,2013-01-31 17:59:00,
2013-01-31 12:04:00,33.4,22.5,30.03,WSW,240,3.0,13.0,64,0.00,,OVC070,0.00,VWS V14.01,2013-01-31 18:04:00,
2013-01-31 12:09:00,33.2,22.0,30.02,WSW,250,10.0,18.0,63,0.00,,OVC070,0.00,VWS V14.01,2013-01-31 18:09:00,
2013-01-31 12:14:00,32.4,21.2,30.02,WSW,240,5.0,17.0,63,0.00,,OVC070,0.00,VWS V14.01,2013-01-31 18:14:00,
2013-01-31 12:19:00,32.6,21.8,30.02,WSW,257,9.0,17.0,64,0.00,,OVC070,0.00,VWS V14.01,2013-01-31 18:19:00,
2013-01-31 12:24:00,32.5,21.7,30.02,West,261,11.0,14.0,64,0.00,,OVC070,0.00,VWS V14.01,2013-01-31 18:24:00,
2013-01-31 12:29:00,32.3,21.9,30.02,WSW,246,10.0,17.0,65,0.00,,OVC070,0.00,VWS V14.01,2013-01-31 18:29:00,
2013-01-31 12:34:00,32.3,22.2,30.02,West,261,7.0,14.0,66,0.00,,BKN090,0.00,VWS V14.01,2013-01-31 18:34:00,
2013-01-31 12:39:00,32.6,22.5,30.02,SW,235,4.0,14.0,66,0.00,,BKN090,0.00,VWS V14.01,2013-01-31 18:39:00,
2013-01-31 12:44:00,32.5,22.1,30.02,WSW,257,9.0,17.0,65,0.00,,BKN090,0.00,VWS V14.01,2013-01-31 18:44:00,
2013-01-31 12:49:00,32.6,22.5,30.01,WSW,240,7.0,17.0,66,0.00,,BKN090,0.00,VWS V14.01,2013-01-31 18:49:00,
2013-01-31 12:54:00,32.9,22.4,30.01,SW,236,7.0,17.0,65,0.00,,OVC045,0.00,VWS V14.01,2013-01-31 18:54:00,
2013-01-31 12:59:00,32.9,22.4,30.01,SW,224,4.0,17.0,65,0.00,,OVC045,0.00,VWS V14.01,2013-01-31 18:59:00,
2013-01-31 13:04:00,33.0,22.5,30.01,West,259,5.0,12.0,65,0.00,,OVC045,0.00,VWS V14.01,2013-01-31 19:04:00,
2013-01-31 13:09:00,33.0,22.2,30.01,WSW,251,4.0,16.0,64,0.00,,OVC045,0.00,VWS V14.01,2013-01-31 19:09:00,
2013-01-31 13:14:00,33.1,22.6,30.01,West,281,4.0,14.0,65,0.00,,OVC045,0.00,VWS V14.01,2013-01-31 19:14:00,
2013-01-31 13:19:00,33.2,22.0,30.01,WSW,250,8.0,19.0,63,0.00,,OVC045,0.00,VWS V14.01,2013-01-31 19:19:00,
2013-01-31 13:24:00,33.3,22.5,30.01,West,273,7.0,12.0,64,0.00,,OVC045,0.00,VWS V14.01,2013-01-31 19:24:00,
2013-01-31 13:29:00,33.3,22.5,30.00,WSW,257,9.0,15.0,64,0.00,,OVC045,0.00,VWS V14.01,2013-01-31 19:29:00,
2013-01-31 13:34:00,33.4,22.5,30.00,West,279,9.0,15.0,64,0.00,,OVC046,0.00,VWS V14.01,2013-01-31 19:34:00,
2013-01-31 13:39:00,33.4,22.5,30.00,West,278,5.0,15.0,64,0.00,,OVC046,0.00,VWS V14.01,2013-01-31 19:39:00,
2013-01-31 13:44:00,33.5,22.6,30.00,South,190,7.0,19.0,64,0.00,,OVC046,0.00,VWS V14.01,2013-01-31 19:44:00,
2013-01-31 13:49:00,33.4,22.9,30.00,NW,304,9.0,19.0,65,0.00,,OVC046,0.00,VWS V14.01,2013-01-31 19:49:00,
2013-01-31 13:54:00,33.3,22.8,30.00,West,261,5.0,19.0,65,0.00,,OVC042,0.00,VWS V14.01,2013-01-31 19:54:00,
2013-01-31 13:59:00,33.2,23.1,30.00,West,268,9.0,19.0,66,0.00,,OVC042,0.00,VWS V14.01,2013-01-31 19:59:00,
2013-01-31 14:04:00,33.3,23.5,30.00,West,261,5.0,13.0,67,0.00,,OVC042,0.00,VWS V14.01,2013-01-31 20:04:00,
2013-01-31 14:09:00,33.7,23.9,30.00,West,267,10.0,13.0,67,0.00,,OVC042,0.00,VWS V14.01,2013-01-31 20:09:00,
2013-01-31 14:14:00,33.8,24.4,30.00,SW,236,7.0,14.0,68,0.00,,OVC042,0.00,VWS V14.01,2013-01-31 20:14:00,
2013-01-31 14:19:00,33.6,23.8,30.00,West,265,12.0,19.0,67,0.00,,OVC042,0.00,VWS V14.01,2013-01-31 20:19:00,
2013-01-31 14:24:00,33.4,23.6,30.01,WSW,244,11.0,17.0,67,0.00,,OVC042,0.00,VWS V14.01,2013-01-31 20:24:00,
2013-01-31 14:29:00,33.3,23.5,30.01,NW,317,9.0,17.0,67,0.00,,OVC042,0.00,VWS V14.01,2013-01-31 20:29:00,
2013-01-31 14:34:00,33.2,23.8,30.01,West,277,14.0,15.0,68,0.00,,BKN037,0.00,VWS V14.01,2013-01-31 20:34:00,
2013-01-31 14:39:00,33.2,24.1,30.01,WSW,253,5.0,15.0,69,0.00,,BKN037,0.00,VWS V14.01,2013-01-31 20:39:00,
2013-01-31 14:44:00,33.3,24.6,30.01,West,276,3.0,14.0,70,0.00,,BKN037,0.00,VWS V14.01,2013-01-31 20:44:00,
2013-01-31 14:49:00,32.8,24.8,30.01,West,259,2.0,14.0,72,0.00,,BKN037,0.00,VWS V14.01,2013-01-31 20:49:00,
2013-01-31 14:54:00,32.5,25.1,30.02,SW,223,4.0,13.0,74,0.00,,OVC046,0.00,VWS V14.01,2013-01-31 20:54:00,
2013-01-31 14:59:00,32.1,25.4,30.01,NW,314,3.0,13.0,76,0.00,,OVC046,0.00,VWS V14.01,2013-01-31 20:59:00,
2013-01-31 15:04:00,32.0,25.6,30.02,West,265,7.0,14.0,77,0.00,,OVC046,0.00,VWS V14.01,2013-01-31 21:04:00,
2013-01-31 15:09:00,31.7,25.9,30.02,WNW,300,7.0,14.0,79,0.00,,OVC046,0.00,VWS V14.01,2013-01-31 21:09:00,
2013-01-31 15:14:00,31.5,26.0,30.02,WNW,296,6.0,11.0,80,0.00,,OVC046,0.00,VWS V14.01,2013-01-31 21:14:00,
2013-01-31 15:19:00,31.3,25.9,30.03,NW,313,4.0,11.0,80,0.00,,OVC046,0.00,VWS V14.01,2013-01-31 21:19:00,
2013-01-31 15:24:00,30.9,25.8,30.03,West,270,6.0,11.0,81,0.00,,OVC046,0.00,VWS V14.01,2013-01-31 21:24:00,
2013-01-31 15:29:00,30.4,25.6,30.03,NW,309,7.0,11.0,82,0.00,,OVC046,0.00,VWS V14.01,2013-01-31 21:29:00,
2013-01-31 15:34:00,30.1,25.6,30.02,WNW,288,3.0,10.0,83,0.00,,,0.00,VWS V14.01,2013-01-31 21:34:00,
2013-01-31 15:39:00,29.8,25.3,30.03,NW,307,3.0,10.0,83,0.00,,,0.00,VWS V14.01,2013-01-31 21:39:00,
2013-01-31 15:44:00,29.7,25.5,30.03,NW,306,7.0,10.0,84,0.00,,,0.00,VWS V14.01,2013-01-31 21:44:00,
2013-01-31 15:49:00,29.5,25.3,30.03,NW,313,6.0,10.0,84,0.00,,,0.00,VWS V14.01,2013-01-31 21:49:00,
2013-01-31 15:54:00,29.2,25.0,30.04,West,272,4.0,13.0,84,0.00,,,0.00,VWS V14.01,2013-01-31 21:54:00,
2013-01-31 15:59:00,29.1,24.9,30.04,NW,316,4.0,13.0,84,0.00,,,0.00,VWS V14.01,2013-01-31 21:59:00,
2013-01-31 16:04:00,29.0,24.8,30.04,WNW,303,4.0,7.0,84,0.00,,,0.00,VWS V14.01,2013-01-31 22:04:00,
2013-01-31 16:10:00,28.8,24.6,30.05,NNW,336,3.0,9.0,84,0.00,,,0.00,VWS V14.01,2013-01-31 22:10:00,
2013-01-31 16:15:00,28.3,24.1,30.05,NW,304,7.0,11.0,84,0.00,,,0.00,VWS V14.01,2013-01-31 22:15:00,
2013-01-31 16:20:00,27.4,23.2,30.06,NW,309,7.0,11.0,84,0.00,,,0.00,VWS V14.01,2013-01-31 22:20:00,
2013-01-31 16:25:00,27.1,22.9,30.06,WNW,296,3.0,8.0,84,0.00,,,0.00,VWS V14.01,2013-01-31 22:25:00,
2013-01-31 16:30:00,27.0,22.8,30.06,NW,315,5.0,12.0,84,0.00,,,0.00,VWS V14.01,2013-01-31 22:30:00,
2013-01-31 16:35:00,26.8,22.6,30.07,WNW,303,6.0,8.0,84,0.00,,,0.00,VWS V14.01,2013-01-31 22:35:00,
2013-01-31 16:40:00,26.5,22.3,30.07,WNW,292,6.0,17.0,84,0.00,,,0.00,VWS V14.01,2013-01-31 22:40:00,
2013-01-31 16:45:00,26.0,21.8,30.07,West,276,4.0,12.0,84,0.00,,,0.00,VWS V14.01,2013-01-31 22:45:00,
2013-01-31 16:50:00,25.9,21.5,30.07,NW,304,6.0,18.0,83,0.00,,,0.00,VWS V14.01,2013-01-31 22:50:00,
2013-01-31 16:55:00,26.2,20.9,30.08,WNW,289,7.0,17.0,80,0.00,,,0.00,VWS V14.01,2013-01-31 22:55:00,
2013-01-31 17:00:00,26.5,20.3,30.08,NW,314,8.0,17.0,77,0.00,,,0.00,VWS V14.01,2013-01-31 23:00:00,
2013-01-31 17:05:00,26.8,19.0,30.08,West,264,13.0,18.0,72,0.00,,,0.00,VWS V14.01,2013-01-31 23:05:00,
2013-01-31 17:10:00,27.0,18.5,30.08,NW,311,10.0,18.0,70,0.00,,,0.00,VWS V14.01,2013-01-31 23:10:00,
2013-01-31 17:15:00,27.1,18.0,30.08,WNW,300,5.0,14.0,68,0.00,,,0.00,VWS V14.01,2013-01-31 23:15:00,
2013-01-31 17:20:00,27.2,18.4,30.08,North,5,6.0,14.0,69,0.00,,,0.00,VWS V14.01,2013-01-31 23:20:00,
2013-01-31 17:25:00,26.9,18.8,30.09,WNW,292,4.0,11.0,71,0.00,,,0.00,VWS V14.01,2013-01-31 23:25:00,
2013-01-31 17:30:00,26.4,18.9,30.10,NW,323,6.0,12.0,73,0.00,,,0.00,VWS V14.01,2013-01-31 23:30:00,
2013-01-31 17:35:00,25.7,18.6,30.11,NNW,340,5.0,13.0,74,0.00,,OVC041,0.00,VWS V14.01,2013-01-31 23:35:00,
2013-01-31 17:40:00,25.1,18.0,30.11,NW,313,6.0,14.0,74,0.00,,OVC041,0.00,VWS V14.01,2013-01-31 23:40:00,
2013-01-31 17:45:00,24.5,17.7,30.12,NNW,340,5.0,12.0,75,0.00,,OVC041,0.00,VWS V14.01,2013-01-31 23:45:00,
2013-01-31 17:50:00,23.9,17.5,30.13,North,350,6.0,12.0,76,0.00,,OVC041,0.00,VWS V14.01,2013-01-31 23:50:00,
2013-01-31 17:55:00,23.4,17.3,30.13,NW,309,3.0,9.0,77,0.00,,OVC060,0.00,VWS V14.01,2013-01-31 23:55:00,
2013-01-31 18:00:00,23.1,16.7,30.13,North,355,9.0,18.0,76,0.00,,OVC060,0.00,VWS V14.01,2013-02-01 00:00:00,
2013-01-31 18:05:00,22.9,15.9,30.14,NW,325,8.0,12.0,74,0.00,,OVC060,0.00,VWS V14.01,2013-02-01 00:05:00,
2013-01-31 18:10:00,22.8,15.5,30.14,NW,316,6.0,12.0,73,0.00,,OVC060,0.00,VWS V14.01,2013-02-01 00:10:00,
2013-01-31 18:15:00,22.6,14.9,30.15,NW,310,3.0,12.0,72,0.00,,OVC060,0.00,VWS V14.01,2013-02-01 00:15:00,
2013-01-31 18:20:00,22.4,13.1,30.15,NW,308,6.0,14.0,67,0.00,,OVC060,0.00,VWS V14.01,2013-02-01 00:20:00,
2013-01-31 18:25:00,22.2,12.9,30.16,NNW,331,13.0,13.0,67,0.00,,OVC060,0.00,VWS V14.01,2013-02-01 00:25:00,
2013-01-31 18:30:00,22.0,12.4,30.16,NW,319,7.0,15.0,66,0.00,,OVC060,0.00,VWS V14.01,2013-02-01 00:30:00,
2013-01-31 18:35:00,21.9,12.0,30.16,NW,310,5.0,15.0,65,0.00,,OVC055,0.00,VWS V14.01,2013-02-01 00:35:00,
2013-01-31 18:40:00,21.6,11.3,30.16,NNE,24,6.0,15.0,64,0.00,,OVC055,0.00,VWS V14.01,2013-02-01 00:40:00,
2013-01-31 18:45:00,21.4,10.8,30.17,ENE,65,1.0,13.0,63,0.00,,OVC055,0.00,VWS V14.01,2013-02-01 00:45:00,
2013-01-31 18:50:00,21.1,10.8,30.17,NNW,333,3.0,14.0,64,0.00,,OVC055,0.00,VWS V14.01,2013-02-01 00:50:00,
2013-01-31 18:55:00,20.9,10.6,30.18,WNW,299,10.0,14.0,64,0.00,,SCT055,0.00,VWS V14.01,2013-02-01 00:55:00,
2013-01-31 19:00:00,20.8,10.6,30.18,WNW,289,7.0,14.0,64,0.00,,SCT055,0.00,VWS V14.01,2013-02-01 01:00:00,
2013-01-31 19:05:00,20.6,10.4,30.18,NW,304,4.0,10.0,64,0.00,,SCT055,0.00,VWS V14.01,2013-02-01 01:05:00,
2013-01-31 19:10:00,20.5,10.6,30.19,NW,319,6.0,13.0,65,0.00,,SCT055,0.00,VWS V14.01,2013-02-01 01:10:00,
2013-01-31 19:15:00,20.3,10.8,30.19,WNW,302,7.0,9.0,66,0.00,,SCT055,0.00,VWS V14.01,2013-02-01 01:15:00,
2013-01-31 19:20:00,20.2,10.7,30.19,NW,317,6.0,9.0,66,0.00,,SCT055,0.00,VWS V14.01,2013-02-01 01:20:00,
2013-01-31 19:25:00,20.1,10.6,30.19,WNW,295,6.0,8.0,66,0.00,,SCT055,0.00,VWS V14.01,2013-02-01 01:25:00,
2013-01-31 19:30:00,20.0,10.5,30.20,NW,316,6.0,9.0,66,0.00,,SCT055,0.00,VWS V14.01,2013-02-01 01:30:00,
2013-01-31 19:35:00,19.9,10.1,30.20,NNE,12,1.0,8.0,65,0.00,,CLR,0.00,VWS V14.01,2013-02-01 01:35:00,
2013-01-31 19:40:00,19.8,10.3,30.20,NW,313,6.0,10.0,66,0.00,,CLR,0.00,VWS V14.01,2013-02-01 01:40:00,
2013-01-31 19:45:00,19.7,9.9,30.20,NW,308,7.0,8.0,65,0.00,,CLR,0.00,VWS V14.01,2013-02-01 01:45:00,
2013-01-31 19:50:00,19.7,9.9,30.21,NW,315,4.0,8.0,65,0.00,,CLR,0.00,VWS V14.01,2013-02-01 01:50:00,
2013-01-31 19:55:00,19.5,9.7,30.21,NNW,330,1.0,9.0,65,0.00,,CLR,0.00,VWS V14.01,2013-02-01 01:55:00,
2013-01-31 20:00:00,19.5,10.0,30.22,NW,324,1.0,13.0,66,0.00,,CLR,0.00,VWS V14.01,2013-02-01 02:00:00,
2013-01-31 20:05:00,19.5,10.3,30.22,NW,310,5.0,7.0,67,0.00,,CLR,0.00,VWS V14.01,2013-02-01 02:05:00,
2013-01-31 20:10:00,19.5,10.3,30.22,NW,320,5.0,11.0,67,0.00,,CLR,0.00,VWS V14.01,2013-02-01 02:10:00,
2013-01-31 20:15:00,19.5,10.7,30.23,NW,323,4.0,7.0,68,0.00,,CLR,0.00,VWS V14.01,2013-02-01 02:15:00,
2013-01-31 20:20:00,19.4,10.2,30.23,NW,311,4.0,15.0,67,0.00,,CLR,0.00,VWS V14.01,2013-02-01 02:20:00,
2013-01-31 20:25:00,19.4,10.6,30.23,NNW,347,3.0,15.0,68,0.00,,CLR,0.00,VWS V14.01,2013-02-01 02:25:00,
2013-01-31 20:30:00,19.3,10.8,30.24,WNW,302,2.0,15.0,69,0.00,,CLR,0.00,VWS V14.01,2013-02-01 02:30:00,
2013-01-31 20:35:00,19.2,10.7,30.23,NNW,348,4.0,9.0,69,0.00,,OVC037,0.00,VWS V14.01,2013-02-01 02:35:00,
2013-01-31 20:40:00,19.0,10.2,30.24,NW,313,1.0,14.0,68,0.00,,OVC037,0.00,VWS V14.01,2013-02-01 02:40:00,
2013-01-31 20:45:00,19.1,10.3,30.25,North,350,4.0,9.0,68,0.00,,OVC037,0.00,VWS V14.01,2013-02-01 02:45:00,
2013-01-31 20:50:00,19.1,10.6,30.25,NW,309,8.0,10.0,69,0.00,,OVC037,0.00,VWS V14.01,2013-02-01 02:50:00,
2013-01-31 20:55:00,19.0,10.2,30.25,West,277,9.0,13.0,68,0.00,,OVC044,0.00,VWS V14.01,2013-02-01 02:55:00,
2013-01-31 21:00:00,18.8,8.6,30.26,NW,313,2.0,15.0,64,0.00,,OVC044,0.00,VWS V14.01,2013-02-01 03:00:00,
2013-01-31 21:05:00,18.7,8.6,30.26,WNW,290,5.0,12.0,64,0.00,,OVC044,0.00,VWS V14.01,2013-02-01 03:05:00,
2013-01-31 21:10:00,18.7,8.6,30.26,NW,322,6.0,14.0,64,0.00,,OVC044,0.00,VWS V14.01,2013-02-01 03:10:00,
2013-01-31 21:15:00,18.6,8.1,30.26,NW,315,5.0,12.0,63,0.00,,OVC044,0.00,VWS V14.01,2013-02-01 03:15:00,
2013-01-31 21:20:00,18.6,8.5,30.26,WNW,292,2.0,12.0,64,0.00,,OVC044,0.00,VWS V14.01,2013-02-01 03:20:00,
2013-01-31 21:25:00,18.6,8.5,30.26,North,351,4.0,9.0,64,0.00,,OVC044,0.00,VWS V14.01,2013-02-01 03:25:00,
2013-01-31 21:30:00,18.5,8.4,30.26,NNW,340,2.0,13.0,64,0.00,,OVC044,0.00,VWS V14.01,2013-02-01 03:30:00,
2013-01-31 21:35:00,18.4,9.0,30.27,North,355,4.0,11.0,66,0.00,,OVC047,0.00,VWS V14.01,2013-02-01 03:35:00,
2013-01-31 21:40:00,18.3,8.9,30.27,WNW,302,3.0,12.0,66,0.00,,OVC047,0.00,VWS V14.01,2013-02-01 03:40:00,
2013-01-31 21:45:00,18.3,9.2,30.27,NW,310,6.0,10.0,67,0.00,,OVC047,0.00,VWS V14.01,2013-02-01 03:45:00,
2013-01-31 21:50:00,18.3,9.2,30.28,NW,304,3.0,10.0,67,0.00,,OVC047,0.00,VWS V14.01,2013-02-01 03:50:00,
2013-01-31 21:55:00,18.2,9.1,30.28,NNE,13,4.0,11.0,67,0.00,,OVC049,0.00,VWS V14.01,2013-02-01 03:55:00,
2013-01-31 22:00:00,18.0,9.2,30.29,WNW,300,1.0,14.0,68,0.00,,OVC049,0.00,VWS V14.01,2013-02-01 04:00:00,
2013-01-31 22:05:00,17.7,9.6,30.29,WNW,283,8.0,16.0,70,0.00,,OVC049,0.00,VWS V14.01,2013-02-01 04:05:00,
2013-01-31 22:10:00,17.0,9.9,30.30,NW,324,5.0,16.0,73,0.00,,OVC049,0.00,VWS V14.01,2013-02-01 04:10:00,
2013-01-31 22:15:00,16.7,9.9,30.30,WNW,291,9.0,12.0,74,0.00,,OVC049,0.00,VWS V14.01,2013-02-01 04:15:00,
2013-01-31 22:20:00,16.5,10.0,30.30,NW,320,8.0,12.0,75,0.00,,OVC049,0.00,VWS V14.01,2013-02-01 04:20:00,
2013-01-31 22:25:00,16.1,9.6,30.30,North,355,1.0,13.0,75,0.00,,OVC049,0.00,VWS V14.01,2013-02-01 04:25:00,
2013-01-31 22:30:00,16.0,9.5,30.31,NNW,348,3.0,13.0,75,0.00,,OVC049,0.00,VWS V14.01,2013-02-01 04:30:00,
2013-01-31 22:35:00,15.9,8.8,30.31,NW,309,7.0,14.0,73,0.00,,,0.00,VWS V14.01,2013-02-01 04:35:00,
2013-01-31 22:40:00,15.6,7.9,30.31,WNW,300,10.0,14.0,71,0.00,,,0.00,VWS V14.01,2013-02-01 04:40:00,
2013-01-31 22:45:00,15.4,7.1,30.32,NW,315,3.0,10.0,69,0.00,,,0.00,VWS V14.01,2013-02-01 04:45:00,
2013-01-31 22:50:00,15.1,5.8,30.32,NW,310,5.0,12.0,66,0.00,,,0.00,VWS V14.01,2013-02-01 04:50:00,
2013-01-31 22:55:00,14.8,4.2,30.33,NW,307,8.0,16.0,62,0.00,,,0.00,VWS V14.01,2013-02-01 04:55:00,
2013-01-31 23:01:00,14.6,3.6,30.33,North,355,9.0,18.0,61,0.00,,,0.00,VWS V14.01,2013-02-01 05:01:00,
2013-01-31 23:06:00,14.3,3.0,30.34,West,275,3.0,19.0,60,0.00,,,0.00,VWS V14.01,2013-02-01 05:06:00,
2013-01-31 23:11:00,14.1,2.8,30.34,NNW,336,7.0,19.0,60,0.00,,,0.00,VWS V14.01,2013-02-01 05:11:00,
2013-01-31 23:21:00,13.8,3.2,30.35,NNW,348,4.0,13.0,62,0.00,,,0.00,VWS V14.01,2013-02-01 05:21:00,
2013-01-31 23:31:00,13.7,3.1,30.35,WNW,303,6.0,10.0,62,0.00,,,0.00,VWS V14.01,2013-02-01 05:31:00,
2013-01-31 23:36:00,13.6,3.0,30.36,WNW,295,7.0,12.0,62,0.00,,SCT042,0.00,VWS V14.01,2013-02-01 05:36:00,
2013-01-31 23:41:00,13.5,2.9,30.36,NW,307,3.0,12.0,62,0.00,,CLR,0.00,VWS V14.01,2013-02-01 05:41:00,
2013-01-31 23:46:00,13.3,2.4,30.36,WNW,303,6.0,11.0,61,0.00,,CLR,0.00,VWS V14.01,2013-02-01 05:46:00,
2013-01-31 23:51:00,13.2,2.3,30.36,NW,322,5.0,13.0,61,0.00,,CLR,0.00,VWS V14.01,2013-02-01 05:51:00,
2013-01-31 23:56:00,13.1,2.2,30.36,NW,320,6.0,12.0,61,0.00,,CLR,0.00,VWS V14.01,2013-02-01 05:56:00,